Time;durP1;ratioP1;P1;durP2;ratioP2;P2;SDS_P1;SDS_P2;PMS_P1;PMS_P2;Temp;Humidity;BMP_temperature;BMP_pressure;BME280_temperature;BME280_humidity;BME280_pressure;Samples;Min_cycle;Max_cycle;Signal;HPM_P1;HPM_P2
2021/05/01 00:01:54;;;;;;;18.70;15.27;;;9.00;99.90;;;;;;4990236;28;20109;-74
2021/05/01 00:04:20;;;;;;;19.17;14.15;;;9.10;99.90;;;;;;4974153;28;20129;-74
2021/05/01 00:06:45;;;;;;;15.63;13.57;;;9.10;99.90;;;;;;4987195;28;20080;-73
2021/05/01 00:09:11;;;;;;;18.52;15.35;;;9.00;99.90;;;;;;4988980;28;20162;-73
2021/05/01 00:11:36;;;;;;;15.05;13.43;;;9.10;99.90;;;;;;4988533;28;20130;-74
2021/05/01 00:14:03;;;;;;;17.50;13.43;;;9.10;99.90;;;;;;4990228;28;20083;-74
2021/05/01 00:16:29;;;;;;;15.82;13.32;;;9.10;99.90;;;;;;4988351;28;20082;-73
2021/05/01 00:18:55;;;;;;;15.63;13.75;;;9.20;99.90;;;;;;4993867;28;20105;-74
2021/05/01 00:21:21;;;;;;;18.70;14.27;;;9.20;99.90;;;;;;4988809;28;20562;-74
2021/05/01 00:23:47;;;;;;;18.55;14.07;;;9.30;99.90;;;;;;4991411;28;20881;-73
2021/05/01 00:26:12;;;;;;;16.33;14.02;;;9.30;99.90;;;;;;4989935;28;20083;-74
2021/05/01 00:28:41;;;;;;;17.92;15.10;;;9.30;99.90;;;;;;4989186;28;20141;-74
2021/05/01 00:31:07;;;;;;;20.42;14.75;;;9.30;99.90;;;;;;4987642;28;20095;-74
2021/05/01 00:33:33;;;;;;;18.25;14.85;;;9.30;99.90;;;;;;4992343;28;20396;-75
2021/05/01 00:35:58;;;;;;;18.15;14.85;;;9.20;99.90;;;;;;4987672;28;20582;-74
2021/05/01 00:38:24;;;;;;;18.83;15.15;;;9.20;99.90;;;;;;4982530;28;20079;-74
2021/05/01 00:40:50;;;;;;;17.45;14.45;;;9.30;99.90;;;;;;4991769;28;20129;-73
2021/05/01 00:43:15;;;;;;;19.05;15.90;;;9.20;99.90;;;;;;4989874;28;20091;-74
2021/05/01 00:45:41;;;;;;;19.23;15.32;;;9.20;99.90;;;;;;4990598;28;20071;-74
2021/05/01 00:48:07;;;;;;;21.60;17.30;;;9.30;99.90;;;;;;4990753;28;20127;-73
2021/05/01 00:50:33;;;;;;;19.60;16.23;;;9.30;99.90;;;;;;4990320;28;20088;-74
2021/05/01 00:53:00;;;;;;;18.38;15.70;;;9.20;99.90;;;;;;4997149;28;20105;-73
2021/05/01 00:55:26;;;;;;;19.13;15.93;;;9.10;99.90;;;;;;4971787;28;20079;-73
2021/05/01 00:57:51;;;;;;;19.15;15.75;;;9.20;99.90;;;;;;4973008;28;20532;-73
2021/05/01 01:03:18;;;;;;;18.25;14.85;;;9.20;99.90;;;;;;4968352;28;20145;-73
2021/05/01 01:05:44;;;;;;;16.30;14.30;;;9.20;99.90;;;;;;4979675;28;20099;-73
2021/05/01 01:08:10;;;;;;;19.98;14.77;;;9.20;99.90;;;;;;4985965;28;20085;-73
2021/05/01 01:10:35;;;;;;;20.98;16.23;;;9.20;99.90;;;;;;4987804;28;20099;-73
2021/05/01 01:13:01;;;;;;;19.60;15.93;;;9.20;99.90;;;;;;4988617;28;20174;-73
2021/05/01 01:15:29;;;;;;;20.92;15.93;;;9.20;99.90;;;;;;4985103;28;20079;-73
2021/05/01 01:17:56;;;;;;;20.20;15.48;;;9.30;99.90;;;;;;4979796;28;20150;-73
2021/05/01 01:20:22;;;;;;;18.83;15.57;;;9.40;99.90;;;;;;4989086;28;20083;-73
2021/05/01 01:22:48;;;;;;;18.58;15.10;;;9.40;99.90;;;;;;4995266;28;20529;-73
2021/05/01 01:25:14;;;;;;;19.75;15.98;;;9.40;99.90;;;;;;4991350;28;20450;-73
2021/05/01 01:27:42;;;;;;;20.75;16.23;;;9.30;99.90;;;;;;5009590;28;20084;-73
2021/05/01 01:30:10;;;;;;;18.67;16.00;;;9.30;99.90;;;;;;5009937;28;20188;-73
2021/05/01 01:32:35;;;;;;;20.10;15.25;;;9.30;99.90;;;;;;4991575;28;20121;-74
2021/05/01 01:35:01;;;;;;;20.38;15.85;;;9.20;99.90;;;;;;4995116;28;20101;-74
2021/05/01 01:37:27;;;;;;;18.40;14.90;;;9.10;99.90;;;;;;4989667;28;20153;-73
2021/05/01 01:39:53;;;;;;;19.02;15.25;;;9.00;99.90;;;;;;5004188;28;20165;-73
2021/05/01 01:42:18;;;;;;;18.80;15.07;;;9.00;99.90;;;;;;4993785;28;20618;-75
2021/05/01 01:44:44;;;;;;;19.42;15.15;;;9.10;99.90;;;;;;4989610;28;20087;-74
2021/05/01 01:47:09;;;;;;;18.52;15.70;;;9.10;99.90;;;;;;4989322;28;20079;-73
2021/05/01 01:49:39;;;;;;;19.33;14.80;;;9.20;99.90;;;;;;4990255;28;20087;-74
2021/05/01 01:52:06;;;;;;;20.15;16.13;;;9.20;99.90;;;;;;4993783;28;20511;-73
2021/05/01 01:54:31;;;;;;;19.08;15.85;;;9.20;99.90;;;;;;4994592;28;20079;-73
2021/05/01 01:57:00;;;;;;;20.67;16.35;;;9.20;99.90;;;;;;4987500;28;20128;-74
2021/05/01 01:59:26;;;;;;;19.80;15.63;;;9.20;99.90;;;;;;4988628;28;20098;-74
2021/05/01 02:01:52;;;;;;;19.38;15.77;;;9.10;99.90;;;;;;4987496;28;20462;-74
2021/05/01 02:04:18;;;;;;;19.25;16.27;;;8.90;99.90;;;;;;4991673;28;20081;-74
2021/05/01 02:06:44;;;;;;;20.52;15.38;;;8.80;99.90;;;;;;4998188;28;20085;-74
2021/05/01 02:09:10;;;;;;;19.10;15.60;;;8.90;99.90;;;;;;4995890;28;20158;-74
2021/05/01 02:11:36;;;;;;;20.50;16.23;;;9.00;99.90;;;;;;4989332;28;20236;-74
2021/05/01 02:14:03;;;;;;;19.98;15.32;;;9.00;99.90;;;;;;4970488;28;20079;-73
2021/05/01 02:16:28;;;;;;;19.90;15.63;;;8.80;99.90;;;;;;4987230;28;20085;-73
2021/05/01 02:18:54;;;;;;;20.23;15.95;;;8.70;99.90;;;;;;4988630;28;20075;-74
2021/05/01 02:21:19;;;;;;;18.88;15.60;;;9.00;99.90;;;;;;4988573;28;20205;-73
2021/05/01 02:23:45;;;;;;;21.67;16.27;;;9.00;99.90;;;;;;4988202;28;20808;-74
2021/05/01 02:26:10;;;;;;;20.20;15.80;;;9.10;99.90;;;;;;4988223;28;20121;-75
2021/05/01 02:28:36;;;;;;;20.90;16.67;;;9.10;99.90;;;;;;5000415;28;20178;-75
2021/05/01 02:31:02;;;;;;;21.33;16.77;;;9.00;99.90;;;;;;4995031;28;20473;-73
2021/05/01 02:33:29;;;;;;;17.88;15.55;;;8.70;99.90;;;;;;4991558;28;20111;-74
2021/05/01 02:35:54;;;;;;;21.30;16.38;;;8.70;99.90;;;;;;4989045;28;20543;-73
2021/05/01 02:38:20;;;;;;;21.40;16.85;;;8.70;99.90;;;;;;4989207;28;20082;-73
2021/05/01 02:40:46;;;;;;;19.85;16.45;;;8.90;99.90;;;;;;4990122;28;20078;-73
2021/05/01 02:43:12;;;;;;;20.75;16.23;;;9.00;99.90;;;;;;4992761;28;20121;-74
2021/05/01 02:45:38;;;;;;;20.58;15.95;;;9.00;99.90;;;;;;4990364;28;20167;-74
2021/05/01 02:48:04;;;;;;;20.58;16.90;;;9.10;99.90;;;;;;4991407;28;20168;-73
2021/05/01 02:50:30;;;;;;;21.00;16.90;;;9.20;99.90;;;;;;4992761;28;20129;-74
2021/05/01 02:52:56;;;;;;;20.95;16.08;;;9.20;99.90;;;;;;4993256;28;20559;-74
2021/05/01 02:55:21;;;;;;;23.50;18.02;;;9.10;99.90;;;;;;4992718;28;20101;-73
2021/05/01 02:57:49;;;;;;;20.45;17.00;;;9.10;99.90;;;;;;4992931;28;20443;-74
2021/05/01 03:00:18;;;;;;;20.98;16.92;;;9.10;99.90;;;;;;5000814;28;20079;-73
2021/05/01 03:02:44;;;;;;;22.25;16.35;;;9.20;99.90;;;;;;4993732;28;20090;-74
2021/05/01 03:05:11;;;;;;;22.73;17.73;;;9.10;99.90;;;;;;4996361;28;20078;-74
2021/05/01 03:07:37;;;;;;;21.13;16.33;;;9.00;99.90;;;;;;4990659;28;20082;-73
2021/05/01 03:10:05;;;;;;;22.67;17.30;;;8.90;99.90;;;;;;5010514;28;20097;-74
2021/05/01 03:12:31;;;;;;;22.33;17.30;;;8.90;99.90;;;;;;5006347;28;20133;-75
2021/05/01 03:14:57;;;;;;;21.20;16.48;;;8.80;99.90;;;;;;4995788;28;20109;-73
2021/05/01 03:17:23;;;;;;;21.23;16.98;;;8.80;99.90;;;;;;4974263;28;20094;-72
2021/05/01 03:19:48;;;;;;;20.58;16.85;;;8.80;99.90;;;;;;4993584;28;20083;-74
2021/05/01 03:22:14;;;;;;;21.35;16.50;;;8.80;99.90;;;;;;5004022;28;20086;-73
2021/05/01 03:24:41;;;;;;;22.75;17.60;;;8.80;99.90;;;;;;4992328;28;20543;-74
2021/05/01 03:27:07;;;;;;;21.02;17.02;;;8.70;99.90;;;;;;4993446;28;20085;-74
2021/05/01 03:29:32;;;;;;;22.02;17.50;;;8.60;99.90;;;;;;4995597;28;20075;-74
2021/05/01 03:31:58;;;;;;;24.45;18.52;;;8.50;99.90;;;;;;4994044;28;20114;-74
2021/05/01 03:34:24;;;;;;;23.63;18.35;;;8.40;99.90;;;;;;4997726;28;20109;-74
2021/05/01 03:36:49;;;;;;;24.50;18.63;;;8.50;99.90;;;;;;4992920;28;20097;-74
2021/05/01 03:39:16;;;;;;;25.33;17.90;;;8.50;99.90;;;;;;4991831;28;20075;-74
2021/05/01 03:41:42;;;;;;;23.00;16.98;;;8.50;99.90;;;;;;4991385;28;20137;-73
2021/05/01 03:44:08;;;;;;;24.52;17.40;;;8.50;99.90;;;;;;4997428;28;20160;-74
2021/05/01 03:46:34;;;;;;;21.23;16.65;;;8.40;99.90;;;;;;4991523;28;20070;-74
2021/05/01 03:49:00;;;;;;;23.85;18.25;;;8.30;99.90;;;;;;4990867;28;20075;-73
2021/05/01 03:51:25;;;;;;;22.92;18.35;;;8.40;99.90;;;;;;4992346;28;20094;-74
2021/05/01 03:53:51;;;;;;;22.88;16.85;;;8.40;99.90;;;;;;4996790;28;20089;-74
2021/05/01 03:56:17;;;;;;;21.08;16.67;;;8.40;99.90;;;;;;4990597;28;20428;-74
2021/05/01 03:58:42;;;;;;;24.50;18.15;;;8.40;99.90;;;;;;4990700;28;20102;-74
2021/05/01 04:01:08;;;;;;;21.95;17.02;;;8.30;99.90;;;;;;5003845;28;20117;-74
2021/05/01 04:03:33;;;;;;;23.27;17.00;;;8.30;99.90;;;;;;5000356;28;20078;-74
2021/05/01 04:05:59;;;;;;;24.95;18.27;;;8.20;99.90;;;;;;4977410;28;20169;-74
2021/05/01 04:08:25;;;;;;;23.90;17.90;;;8.20;99.90;;;;;;4992941;28;20079;-73
2021/05/01 04:10:51;;;;;;;25.52;19.10;;;8.30;99.90;;;;;;5001806;28;20098;-74
2021/05/01 04:13:16;;;;;;;22.65;17.00;;;8.20;99.90;;;;;;5005570;28;20093;-74
2021/05/01 04:15:42;;;;;;;23.00;17.88;;;8.30;99.90;;;;;;4996575;28;20087;-74
2021/05/01 04:18:14;;;;;;;25.05;17.67;;;8.30;99.90;;;;;;4997030;28;20543;-74
2021/05/01 04:20:41;;;;;;;21.95;17.17;;;8.30;99.90;;;;;;4993816;28;20075;-74
2021/05/01 04:23:08;;;;;;;25.27;18.30;;;8.30;99.90;;;;;;4989958;28;20323;-74
2021/05/01 04:25:35;;;;;;;24.45;18.30;;;8.20;99.90;;;;;;4998703;28;20113;-74
2021/05/01 04:28:01;;;;;;;25.80;19.27;;;8.20;99.90;;;;;;4990453;28;20162;-73
2021/05/01 04:30:27;;;;;;;24.60;18.55;;;8.20;99.90;;;;;;4990940;28;20233;-74
2021/05/01 04:32:52;;;;;;;26.83;18.88;;;8.20;99.90;;;;;;5000543;28;20117;-74
2021/05/01 04:35:18;;;;;;;23.08;17.77;;;8.20;99.90;;;;;;4997399;28;20154;-74
2021/05/01 04:37:43;;;;;;;24.42;18.98;;;8.30;99.90;;;;;;4989323;28;20071;-73
2021/05/01 04:40:10;;;;;;;25.35;18.90;;;8.30;99.90;;;;;;4991200;28;20534;-73
2021/05/01 04:42:40;;;;;;;26.83;18.75;;;8.30;99.90;;;;;;4991158;28;20210;-74
2021/05/01 04:45:06;;;;;;;25.90;20.25;;;8.20;99.90;;;;;;4990299;28;20067;-74
2021/05/01 04:47:32;;;;;;;23.55;18.08;;;8.30;99.90;;;;;;5005132;28;20544;-74
2021/05/01 04:49:58;;;;;;;25.85;19.05;;;8.30;99.90;;;;;;4999842;28;20098;-74
2021/05/01 04:52:23;;;;;;;25.85;18.23;;;8.30;99.90;;;;;;4987878;28;20524;-74
2021/05/01 04:54:52;;;;;;;24.60;18.45;;;8.20;99.90;;;;;;5002038;28;20157;-74
2021/05/01 04:57:18;;;;;;;24.83;18.50;;;8.30;99.90;;;;;;4993935;28;20118;-73
2021/05/01 04:59:43;;;;;;;25.17;18.65;;;8.30;99.90;;;;;;5004337;28;20082;-73
2021/05/01 05:02:09;;;;;;;25.30;19.08;;;8.30;99.90;;;;;;4992103;28;20087;-73
2021/05/01 05:04:34;;;;;;;25.02;17.90;;;8.40;99.90;;;;;;4988865;28;20806;-74
2021/05/01 05:07:00;;;;;;;24.95;18.08;;;8.40;99.90;;;;;;4993015;28;20109;-73
2021/05/01 05:09:25;;;;;;;28.00;20.10;;;8.40;99.90;;;;;;5004809;28;20079;-74
2021/05/01 05:11:51;;;;;;;26.10;17.88;;;8.30;99.90;;;;;;5009104;28;20583;-74
2021/05/01 05:14:17;;;;;;;26.67;19.05;;;8.30;99.90;;;;;;5002830;28;20079;-74
2021/05/01 05:16:42;;;;;;;26.77;19.00;;;8.40;99.90;;;;;;4997341;28;20081;-74
2021/05/01 05:19:08;;;;;;;26.55;19.20;;;8.40;99.90;;;;;;4988937;28;20074;-74
2021/05/01 05:21:35;;;;;;;23.48;18.38;;;8.40;99.90;;;;;;4989553;28;20506;-74
2021/05/01 05:24:03;;;;;;;26.65;19.60;;;8.50;99.90;;;;;;4972344;28;20079;-74
2021/05/01 05:26:29;;;;;;;23.17;18.05;;;8.50;99.90;;;;;;4989132;28;20490;-74
2021/05/01 05:28:54;;;;;;;27.27;19.08;;;8.60;99.90;;;;;;4991056;28;20078;-74
2021/05/01 05:31:20;;;;;;;26.33;18.83;;;8.50;99.90;;;;;;5003441;28;20097;-73
2021/05/01 05:33:45;;;;;;;27.35;19.75;;;8.50;99.90;;;;;;4998706;28;20082;-74
2021/05/01 05:36:11;;;;;;;25.23;19.10;;;8.50;99.90;;;;;;4988363;28;20458;-74
2021/05/01 05:38:36;;;;;;;24.77;18.10;;;8.60;99.90;;;;;;4991537;28;20448;-74
2021/05/01 05:41:02;;;;;;;27.30;19.70;;;8.70;99.90;;;;;;4989848;28;20627;-74
2021/05/01 05:43:30;;;;;;;25.60;19.23;;;8.80;99.90;;;;;;4993288;28;20091;-74
2021/05/01 05:45:55;;;;;;;27.20;19.90;;;8.80;99.90;;;;;;4969318;28;20158;-74
2021/05/01 05:48:22;;;;;;;27.42;20.35;;;8.80;99.90;;;;;;4998050;28;20085;-74
2021/05/01 05:50:48;;;;;;;31.15;18.48;;;8.80;99.90;;;;;;5000420;28;20141;-73
2021/05/01 05:53:13;;;;;;;27.20;19.30;;;9.00;99.90;;;;;;4989096;28;20174;-74
2021/05/01 05:55:39;;;;;;;24.27;18.45;;;8.90;99.90;;;;;;4999472;28;20565;-74
2021/05/01 05:58:04;;;;;;;28.08;20.40;;;8.90;99.90;;;;;;4993135;28;20097;-74
2021/05/01 06:00:30;;;;;;;25.75;18.02;;;8.90;99.90;;;;;;4989878;28;20161;-73
2021/05/01 06:03:00;;;;;;;27.00;19.35;;;9.00;99.90;;;;;;4998826;28;20144;-74
2021/05/01 06:05:27;;;;;;;26.15;19.95;;;9.00;99.90;;;;;;4990708;28;20166;-74
2021/05/01 06:07:58;;;;;;;25.88;18.90;;;9.00;99.90;;;;;;4976087;28;20102;-74
2021/05/01 06:10:24;;;;;;;26.02;17.60;;;9.10;99.90;;;;;;4995915;28;20121;-74
2021/05/01 06:12:52;;;;;;;28.15;19.02;;;9.10;99.90;;;;;;4993453;28;20133;-74
2021/05/01 06:15:18;;;;;;;24.30;19.00;;;9.20;99.90;;;;;;4987329;28;20082;-74
2021/05/01 06:17:46;;;;;;;25.95;18.83;;;9.10;99.90;;;;;;4988487;28;20074;-74
2021/05/01 06:20:13;;;;;;;24.80;19.02;;;9.20;99.90;;;;;;4991012;28;20121;-73
2021/05/01 06:22:39;;;;;;;26.35;19.65;;;9.20;99.90;;;;;;5005745;28;20094;-74
2021/05/01 06:25:07;;;;;;;25.42;19.15;;;9.30;99.90;;;;;;4990240;28;20086;-73
2021/05/01 06:27:33;;;;;;;24.30;17.63;;;9.30;99.90;;;;;;4994983;28;20084;-74
2021/05/01 06:30:00;;;;;;;22.98;17.60;;;9.30;99.90;;;;;;4999091;28;20097;-74
2021/05/01 06:32:26;;;;;;;23.30;16.55;;;9.30;99.90;;;;;;4996394;28;20424;-74
2021/05/01 06:34:54;;;;;;;22.65;17.95;;;9.40;99.90;;;;;;5002207;28;20125;-74
2021/05/01 06:37:21;;;;;;;22.42;15.77;;;9.50;99.90;;;;;;4987779;28;20082;-74
2021/05/01 06:39:50;;;;;;;22.80;17.80;;;9.60;99.90;;;;;;4990014;28;20087;-75
2021/05/01 06:42:28;;;;;;;22.23;17.40;;;9.60;99.90;;;;;;4990323;28;20463;-74
2021/05/01 06:45:11;;;;;;;19.70;15.35;;;9.70;99.90;;;;;;4976296;28;20082;-75
2021/05/01 06:47:55;;;;;;;20.30;15.18;;;9.70;99.90;;;;;;4995143;28;20169;-74
2021/05/01 06:50:23;;;;;;;18.52;14.38;;;9.80;99.90;;;;;;4996420;28;20097;-74
2021/05/01 06:52:49;;;;;;;20.00;15.73;;;9.90;99.90;;;;;;4989932;28;20166;-74
2021/05/01 06:55:17;;;;;;;25.63;16.77;;;9.90;99.90;;;;;;4980561;28;20082;-74
2021/05/01 06:57:45;;;;;;;20.95;16.20;;;9.90;99.90;;;;;;4997386;28;20074;-75
2021/05/01 07:00:11;;;;;;;21.40;15.43;;;9.90;99.90;;;;;;4999310;28;20165;-74
2021/05/01 07:02:42;;;;;;;20.15;15.18;;;9.90;99.90;;;;;;4994318;28;20178;-75
2021/05/01 07:05:09;;;;;;;21.65;16.13;;;9.90;99.90;;;;;;4987425;28;20079;-74
2021/05/01 07:07:35;;;;;;;19.55;14.63;;;9.90;99.90;;;;;;4975235;28;20074;-74
2021/05/01 07:10:03;;;;;;;18.83;15.35;;;10.00;99.90;;;;;;5007291;28;20152;-74
2021/05/01 07:12:29;;;;;;;20.33;15.35;;;10.00;99.90;;;;;;5006940;28;20122;-74
2021/05/01 07:14:55;;;;;;;20.50;14.88;;;10.10;99.90;;;;;;4994845;28;20173;-74
2021/05/01 07:17:22;;;;;;;19.60;15.05;;;10.10;99.90;;;;;;4996451;28;20545;-75
2021/05/01 07:19:47;;;;;;;22.52;16.58;;;10.10;99.90;;;;;;4990867;28;20079;-74
2021/05/01 07:22:14;;;;;;;21.42;15.30;;;10.30;99.90;;;;;;4991786;28;20102;-74
2021/05/01 07:24:40;;;;;;;20.42;15.15;;;10.30;99.90;;;;;;4993438;28;20079;-75
2021/05/01 07:27:06;;;;;;;19.55;14.95;;;10.40;99.90;;;;;;4992113;28;20133;-74
2021/05/01 07:29:40;;;;;;;22.77;16.95;;;10.40;99.90;;;;;;4978587;28;20082;-74
2021/05/01 07:32:08;;;;;;;17.60;13.17;;;10.60;99.90;;;;;;4990944;28;20130;-74
2021/05/01 07:34:35;;;;;;;19.10;13.93;;;10.60;99.90;;;;;;4995986;28;20322;-75
2021/05/01 07:37:10;;;;;;;17.60;12.85;;;10.80;99.90;;;;;;4991397;28;20082;-74
2021/05/01 07:39:39;;;;;;;17.80;13.48;;;10.90;99.90;;;;;;4993541;28;20102;-74
2021/05/01 07:42:07;;;;;;;16.20;11.85;;;10.80;99.90;;;;;;4995544;28;20181;-75
2021/05/01 07:44:32;;;;;;;15.00;12.00;;;10.90;99.90;;;;;;4986057;28;20488;-74
2021/05/01 07:47:02;;;;;;;16.30;11.82;;;11.00;99.90;;;;;;4992594;28;20237;-74
2021/05/01 07:49:29;;;;;;;14.77;11.13;;;11.30;99.90;;;;;;4991023;28;20077;-74
2021/05/01 07:51:55;;;;;;;16.75;12.75;;;11.40;99.90;;;;;;4971485;28;20124;-74
2021/05/01 07:54:22;;;;;;;16.45;11.82;;;11.70;99.90;;;;;;4990513;28;20590;-73
2021/05/01 07:56:48;;;;;;;15.27;11.63;;;11.60;99.90;;;;;;4989353;28;20078;-74
2021/05/01 07:59:14;;;;;;;12.90;10.95;;;11.50;99.90;;;;;;4987742;28;20192;-74
2021/05/01 08:01:41;;;;;;;15.85;11.10;;;11.60;99.90;;;;;;4990409;28;20577;-74
2021/05/01 08:04:08;;;;;;;13.82;11.50;;;11.60;99.90;;;;;;4987069;28;20078;-74
2021/05/01 08:06:35;;;;;;;12.02;9.63;;;11.70;99.90;;;;;;4965699;28;20133;-74
2021/05/01 08:09:04;;;;;;;13.10;9.60;;;11.70;99.90;;;;;;4971177;28;20075;-73
2021/05/01 08:11:31;;;;;;;12.55;10.18;;;11.60;99.90;;;;;;4973026;28;20102;-73
2021/05/01 08:13:58;;;;;;;12.27;8.77;;;11.70;99.90;;;;;;4989029;28;20083;-73
2021/05/01 08:16:23;;;;;;;13.20;10.05;;;11.70;99.90;;;;;;4983270;28;20547;-74
2021/05/01 08:18:52;;;;;;;16.13;11.18;;;11.90;99.90;;;;;;4971649;28;20071;-73
2021/05/01 08:21:18;;;;;;;11.82;9.35;;;11.90;99.90;;;;;;4989000;28;20593;-74
2021/05/01 08:23:43;;;;;;;12.63;10.25;;;11.80;99.90;;;;;;4991288;28;20082;-74
2021/05/01 08:26:09;;;;;;;12.75;10.13;;;11.90;99.90;;;;;;4970046;28;20070;-74
2021/05/01 08:28:34;;;;;;;14.10;10.20;;;12.00;99.90;;;;;;4988777;28;20091;-73
2021/05/01 08:31:01;;;;;;;12.30;9.07;;;12.00;99.90;;;;;;4989985;28;20093;-74
2021/05/01 08:33:26;;;;;;;11.13;8.38;;;12.00;99.90;;;;;;4983820;28;20100;-73
2021/05/01 08:35:52;;;;;;;11.27;8.68;;;12.10;99.90;;;;;;4986670;28;20079;-73
2021/05/01 08:38:20;;;;;;;11.85;9.10;;;12.10;99.90;;;;;;4989231;28;20087;-73
2021/05/01 08:40:46;;;;;;;10.18;8.05;;;12.00;99.90;;;;;;4987218;28;20071;-73
2021/05/01 08:43:12;;;;;;;11.65;9.18;;;11.90;99.90;;;;;;4986871;28;20082;-72
2021/05/01 08:45:38;;;;;;;12.30;8.60;;;11.90;99.90;;;;;;4987969;28;20867;-73
2021/05/01 08:48:04;;;;;;;10.65;8.20;;;11.90;99.90;;;;;;4987739;28;20841;-73
2021/05/01 08:50:32;;;;;;;9.50;7.80;;;12.00;99.90;;;;;;4989279;28;20098;-73
2021/05/01 08:53:02;;;;;;;9.48;7.97;;;12.00;99.90;;;;;;4988064;28;20163;-74
2021/05/01 08:55:35;;;;;;;8.65;6.43;;;12.10;99.90;;;;;;4989402;28;20085;-74
2021/05/01 08:58:06;;;;;;;10.45;7.32;;;12.10;99.90;;;;;;4989485;28;20067;-74
2021/05/01 09:00:34;;;;;;;7.28;6.05;;;12.00;99.90;;;;;;4989818;28;20079;-73
2021/05/01 09:03:07;;;;;;;9.48;7.75;;;12.10;99.90;;;;;;4987082;28;20145;-74
2021/05/01 09:05:35;;;;;;;9.90;7.82;;;12.10;99.90;;;;;;4987408;28;20085;-73
2021/05/01 09:08:02;;;;;;;10.05;8.13;;;12.10;99.90;;;;;;4988614;28;20553;-74
2021/05/01 09:10:40;;;;;;;9.02;7.60;;;12.10;99.90;;;;;;4988449;28;20086;-74
2021/05/01 09:13:32;;;;;;;9.88;7.82;;;12.20;99.90;;;;;;4988219;28;20078;-74
2021/05/01 09:16:08;;;;;;;11.23;8.38;;;12.10;99.90;;;;;;4984158;28;20110;-73
2021/05/01 09:18:50;;;;;;;10.00;8.32;;;12.10;99.90;;;;;;4989327;28;20082;-73
2021/05/01 09:21:23;;;;;;;10.23;8.05;;;12.00;99.90;;;;;;4983242;28;20074;-73
2021/05/01 09:23:50;;;;;;;11.82;10.00;;;11.90;99.90;;;;;;4988621;28;20293;-73
2021/05/01 09:26:22;;;;;;;10.95;8.70;;;12.00;99.90;;;;;;4987828;28;20150;-73
2021/05/01 09:28:50;;;;;;;10.63;8.80;;;12.00;99.90;;;;;;4990923;28;20071;-73
2021/05/01 09:31:18;;;;;;;10.85;8.82;;;11.90;99.90;;;;;;4988306;28;20083;-73
2021/05/01 09:33:51;;;;;;;10.90;8.73;;;12.00;99.90;;;;;;4989364;28;20128;-74
2021/05/01 09:36:20;;;;;;;11.50;9.10;;;11.90;99.90;;;;;;4996332;28;20750;-74
2021/05/01 09:38:46;;;;;;;11.43;8.73;;;12.00;99.90;;;;;;4988147;28;20082;-74
2021/05/01 09:41:18;;;;;;;10.95;8.43;;;11.90;99.90;;;;;;4987980;28;20090;-75
2021/05/01 09:44:07;;;;;;;12.18;9.20;;;11.80;99.90;;;;;;4990907;28;20084;-74
2021/05/01 09:46:47;;;;;;;11.23;8.50;;;11.80;99.90;;;;;;4984590;28;20102;-78
2021/05/01 09:49:28;;;;;;;10.85;8.73;;;11.80;99.90;;;;;;4987574;28;20440;-75
2021/05/01 09:52:00;;;;;;;9.75;7.63;;;11.90;99.90;;;;;;4985641;28;20518;-75
2021/05/01 09:54:36;;;;;;;11.43;9.00;;;11.80;99.90;;;;;;4987516;28;20102;-75
2021/05/01 09:57:05;;;;;;;11.27;8.63;;;12.00;99.90;;;;;;4984672;28;20601;-78
2021/05/01 09:59:39;;;;;;;11.05;8.23;;;12.00;99.90;;;;;;4986618;28;20089;-78
2021/05/01 10:02:06;;;;;;;11.93;8.32;;;12.00;99.90;;;;;;4987186;28;20116;-74
2021/05/01 10:04:32;;;;;;;12.57;9.65;;;12.00;99.90;;;;;;4985947;28;20110;-74
2021/05/01 10:07:03;;;;;;;11.63;8.88;;;12.00;99.90;;;;;;4985164;28;20078;-73
2021/05/01 10:09:32;;;;;;;11.70;8.55;;;12.00;99.90;;;;;;4977561;28;20081;-74
2021/05/01 10:12:15;;;;;;;12.02;8.77;;;12.10;99.90;;;;;;4970819;28;20103;-78
2021/05/01 10:14:51;;;;;;;12.07;9.38;;;12.10;99.90;;;;;;4986618;28;20083;-72
2021/05/01 10:17:23;;;;;;;13.27;10.00;;;12.10;99.90;;;;;;4989253;28;20073;-73
2021/05/01 10:20:07;;;;;;;12.82;9.80;;;12.20;99.90;;;;;;4997804;28;20078;-74
2021/05/01 10:22:33;;;;;;;12.20;9.70;;;12.20;99.90;;;;;;4989791;28;20486;-74
2021/05/01 10:25:26;;;;;;;11.48;8.57;;;12.20;99.90;;;;;;4993293;28;20119;-74
2021/05/01 10:33:10;;;;;;;12.63;10.10;;;12.50;99.90;;;;;;4993850;28;20592;-75
2021/05/01 10:36:01;;;;;;;12.65;9.00;;;12.40;99.90;;;;;;4985941;28;20077;-74
2021/05/01 10:38:27;;;;;;;13.15;9.20;;;12.40;99.90;;;;;;4976973;28;20170;-74
2021/05/01 10:40:56;;;;;;;14.23;10.05;;;12.40;99.90;;;;;;4987389;28;20146;-74
2021/05/01 10:43:24;;;;;;;12.68;8.88;;;12.40;99.90;;;;;;4990289;28;20090;-74
2021/05/01 10:45:51;;;;;;;11.63;9.57;;;12.40;99.90;;;;;;4989203;28;20071;-74
2021/05/01 10:48:17;;;;;;;13.27;10.35;;;12.40;99.90;;;;;;4986805;28;20074;-75
2021/05/01 10:50:43;;;;;;;13.35;11.27;;;12.50;99.90;;;;;;4990687;28;20167;-75
2021/05/01 10:53:21;;;;;;;13.95;10.48;;;12.30;99.90;;;;;;4986644;28;20555;-74
2021/05/01 10:55:52;;;;;;;13.85;9.23;;;12.40;99.90;;;;;;4969446;28;20424;-74
2021/05/01 10:58:34;;;;;;;13.30;10.45;;;12.40;99.90;;;;;;4985167;28;20130;-75
2021/05/01 11:01:00;;;;;;;14.55;10.13;;;12.40;99.90;;;;;;4988885;28;20118;-78
2021/05/01 11:03:27;;;;;;;13.95;11.13;;;12.50;99.90;;;;;;4984901;28;20582;-75
2021/05/01 11:05:54;;;;;;;12.35;9.80;;;12.40;99.90;;;;;;4988069;28;20121;-76
2021/05/01 11:08:37;;;;;;;13.68;10.27;;;12.50;99.90;;;;;;4990643;28;20090;-76
2021/05/01 11:11:06;;;;;;;12.07;9.18;;;12.60;99.90;;;;;;4990381;28;20082;-74
2021/05/01 11:13:33;;;;;;;11.57;8.57;;;12.60;99.90;;;;;;4991246;28;20119;-74
2021/05/01 11:16:00;;;;;;;12.00;9.45;;;12.60;99.90;;;;;;4988797;28;20145;-74
2021/05/01 11:18:27;;;;;;;9.55;8.40;;;12.60;99.90;;;;;;4989018;28;20519;-75
2021/05/01 11:20:58;;;;;;;10.13;8.45;;;12.60;99.90;;;;;;4989082;28;20172;-74
2021/05/01 11:23:29;;;;;;;10.60;8.10;;;12.60;99.90;;;;;;4989535;28;20091;-74
2021/05/01 11:25:59;;;;;;;11.50;8.73;;;12.60;99.90;;;;;;4989322;28;20090;-74
2021/05/01 11:28:25;;;;;;;12.75;9.02;;;12.70;99.90;;;;;;4988963;28;20079;-74
2021/05/01 11:30:53;;;;;;;11.10;8.55;;;12.60;99.90;;;;;;4988522;28;20095;-74
2021/05/01 11:33:20;;;;;;;11.02;8.70;;;12.70;99.90;;;;;;4989720;28;20099;-75
2021/05/01 11:35:51;;;;;;;11.02;8.60;;;12.70;99.90;;;;;;4989644;28;20158;-74
2021/05/01 11:38:24;;;;;;;10.73;8.40;;;12.80;99.90;;;;;;4973607;28;20067;-75
2021/05/01 11:40:54;;;;;;;8.82;7.30;;;12.80;99.90;;;;;;4993410;28;20133;-74
2021/05/01 11:43:24;;;;;;;9.57;8.13;;;12.90;99.90;;;;;;4991671;28;20125;-72
2021/05/01 11:45:58;;;;;;;9.25;7.45;;;13.00;99.90;;;;;;4991896;28;20460;-75
2021/05/01 11:48:31;;;;;;;10.73;7.07;;;13.00;99.90;;;;;;4993100;28;20439;-76
2021/05/01 11:50:57;;;;;;;9.45;7.93;;;13.00;99.90;;;;;;4997467;28;20145;-79
2021/05/01 11:53:37;;;;;;;9.68;7.75;;;13.10;99.90;;;;;;4991533;28;20091;-76
2021/05/01 11:56:35;;;;;;;8.13;7.10;;;13.10;99.90;;;;;;4991182;28;20070;-75
2021/05/01 11:59:13;;;;;;;9.75;7.93;;;13.10;99.90;;;;;;4991098;28;20090;-76
2021/05/01 12:01:48;;;;;;;9.77;8.13;;;13.20;99.90;;;;;;4994099;28;20099;-76
2021/05/01 12:04:18;;;;;;;8.02;6.95;;;13.30;99.90;;;;;;4990112;28;20153;-76
2021/05/01 12:06:54;;;;;;;9.30;7.85;;;13.40;99.90;;;;;;4988730;28;20079;-77
2021/05/01 12:09:24;;;;;;;8.45;7.53;;;13.30;99.90;;;;;;4957742;28;20098;-75
2021/05/01 12:11:50;;;;;;;8.00;7.07;;;13.20;99.90;;;;;;4987791;28;20102;-73
2021/05/01 12:14:17;;;;;;;9.82;8.18;;;13.30;99.90;;;;;;4988508;28;20133;-74
2021/05/01 12:16:45;;;;;;;16.90;10.73;;;13.30;99.90;;;;;;4987246;28;20828;-73
2021/05/01 12:19:25;;;;;;;15.68;9.38;;;13.30;99.90;;;;;;4985940;28;20554;-73
2021/05/01 12:21:52;;;;;;;9.00;7.85;;;13.30;99.90;;;;;;4986029;28;20114;-74
2021/05/01 12:24:30;;;;;;;12.95;10.32;;;13.30;99.90;;;;;;4986682;28;20075;-73
2021/05/01 12:26:56;;;;;;;11.30;8.82;;;13.30;99.90;;;;;;4968095;28;20070;-74
2021/05/01 12:29:31;;;;;;;10.48;8.38;;;13.30;99.90;;;;;;4989341;28;20079;-73
2021/05/01 12:32:03;;;;;;;9.77;8.02;;;13.30;99.90;;;;;;4990267;28;20189;-78
2021/05/01 12:34:47;;;;;;;8.68;7.32;;;13.20;99.90;;;;;;4992012;28;20062;-74
2021/05/01 12:37:13;;;;;;;10.45;8.35;;;13.20;99.90;;;;;;4991673;28;20073;-74
2021/05/01 12:39:39;;;;;;;9.75;7.80;;;13.20;99.90;;;;;;4996449;28;20075;-74
2021/05/01 12:42:21;;;;;;;9.40;7.80;;;13.20;99.90;;;;;;4992135;28;20086;-74
2021/05/01 12:44:48;;;;;;;10.13;8.32;;;13.30;99.90;;;;;;4990429;28;20078;-76
2021/05/01 12:47:36;;;;;;;12.30;9.65;;;13.30;99.90;;;;;;4987720;28;20450;-76
2021/05/01 12:50:19;;;;;;;11.80;9.07;;;13.20;99.90;;;;;;4990738;28;20126;-76